Time;durP1;ratioP1;P1;durP2;ratioP2;P2;SDS_P1;SDS_P2;PMS_P1;PMS_P2;Temp;Humidity;BMP_temperature;BMP_pressure;BME280_temperature;BME280_humidity;BME280_pressure;Samples;Min_cycle;Max_cycle;Signal;HPM_P1;HPM_P2
2022/07/18 00:03:02;;;;;;;;;;;;;;;;;;10420725;28;19932;-63
2022/07/18 00:08:04;;;;;;;;;;;;;;;;;;10421798;28;19929;-63
2022/07/18 00:13:06;;;;;;;;;;;;;;;;;;10421571;28;19929;-63
2022/07/18 00:18:08;;;;;;;;;;;;;;;;;;10403552;28;19926;-64
2022/07/18 00:23:10;;;;;;;;;;;;;;;;;;10420513;28;19925;-64
2022/07/18 00:28:12;;;;;;;;;;;;;;;;;;10420412;28;19975;-63
2022/07/18 00:33:14;;;;;;;;;;;;;;;;;;10420821;28;19929;-63
2022/07/18 00:38:16;;;;;;;;;;;;;;;;;;10419769;28;19925;-63
2022/07/18 00:43:18;;;;;;;;;;;;;;;;;;10419836;28;19925;-63
2022/07/18 00:48:24;;;;;;;;;;;;;;;;;;10419951;28;19929;-63
2022/07/18 00:53:26;;;;;;;;;;;;;;;;;;10420036;28;19926;-63
2022/07/18 00:58:28;;;;;;;;;;;;;;;;;;10419864;28;19933;-63
2022/07/18 01:03:30;;;;;;;;;;;;;;;;;;10418456;28;19933;-63
2022/07/18 01:08:32;;;;;;;;;;;;;;;;;;10419424;28;19925;-64
2022/07/18 01:13:34;;;;;;;;;;;;;;;;;;10418065;28;19929;-64
2022/07/18 01:18:36;;;;;;;;;;;;;;;;;;10418821;28;19983;-64
2022/07/18 01:23:39;;;;;;;;;;;;;;;;;;10418311;28;19925;-64
2022/07/18 01:28:41;;;;;;;;;;;;;;;;;;10418617;28;19933;-64
2022/07/18 01:33:43;;;;;;;;;;;;;;;;;;10418436;28;19925;-64
2022/07/18 01:38:45;;;;;;;;;;;;;;;;;;10417341;28;19952;-64
2022/07/18 01:43:47;;;;;;;;;;;;;;;;;;10417238;28;19932;-64
2022/07/18 01:48:49;;;;;;;;;;;;;;;;;;10417568;28;20515;-64
2022/07/18 01:53:51;;;;;;;;;;;;;;;;;;10417359;28;20273;-64
2022/07/18 01:58:53;;;;;;;;;;;;;;;;;;10416613;28;20396;-64
2022/07/18 02:03:55;;;;;;;;;;;;;;;;;;10417032;28;19929;-64
2022/07/18 02:08:57;;;;;;;;;;;;;;;;;;10417136;28;19925;-64
2022/07/18 02:13:59;;;;;;;;;;;;;;;;;;10416078;28;20380;-64
2022/07/18 02:19:01;;;;;;;;;;;;;;;;;;10416637;28;19925;-64
2022/07/18 02:24:03;;;;;;;;;;;;;;;;;;10415367;28;20283;-64
2022/07/18 02:29:05;;;;;;;;;;;;;;;;;;10415916;28;19929;-64
2022/07/18 02:34:11;;;;;;;;;;;;;;;;;;10398880;28;19925;-64
2022/07/18 02:39:14;;;;;;;;;;;;;;;;;;10415349;28;20372;-64
2022/07/18 02:44:16;;;;;;;;;;;;;;;;;;10415244;28;19929;-64
2022/07/18 02:49:27;;;;;;;;;;;;;;;;;;10415428;28;19925;-64
2022/07/18 02:54:29;;;;;;;;;;;;;;;;;;10415167;28;19933;-63
2022/07/18 02:59:31;;;;;;;;;;;;;;;;;;10415235;28;20257;-63
2022/07/18 03:04:33;;;;;;;;;;;;;;;;;;10414880;28;20372;-63
2022/07/18 03:09:35;;;;;;;;;;;;;;;;;;10415812;28;19936;-63
2022/07/18 03:14:37;;;;;;;;;;;;;;;;;;10414937;28;19925;-63
2022/07/18 03:19:39;;;;;;;;;;;;;;;;;;10414821;28;20398;-63
2022/07/18 03:24:41;;;;;;;;;;;;;;;;;;10414202;28;20296;-63
2022/07/18 03:29:43;;;;;;;;;;;;;;;;;;10414662;28;20373;-63
2022/07/18 03:34:46;;;;;;;;;;;;;;;;;;10416594;28;19959;-63
2022/07/18 03:39:48;;;;;;;;;;;;;;;;;;10422639;28;19925;-63
2022/07/18 03:44:50;;;;;;;;;;;;;;;;;;10421322;28;20258;-63
2022/07/18 03:49:52;;;;;;;;;;;;;;;;;;10422833;28;19932;-64
2022/07/18 03:54:54;;;;;;;;;;;;;;;;;;10421667;28;19948;-64
2022/07/18 03:59:56;;;;;;;;;;;;;;;;;;10421918;28;19932;-64
2022/07/18 04:04:58;;;;;;;;;;;;;;;;;;10404075;28;19933;-64
2022/07/18 04:10:00;;;;;;;;;;;;;;;;;;10421489;28;19932;-64
2022/07/18 04:15:03;;;;;;;;;;;;;;;;;;10421004;28;20261;-64
2022/07/18 04:20:05;;;;;;;;;;;;;;;;;;10421365;28;19929;-64
2022/07/18 04:25:07;;;;;;;;;;;;;;;;;;10420247;28;20257;-64
2022/07/18 04:30:09;;;;;;;;;;;;;;;;;;10420941;28;19925;-64
2022/07/18 04:35:11;;;;;;;;;;;;;;;;;;10420758;28;19925;-64
2022/07/18 04:40:13;;;;;;;;;;;;;;;;;;10419723;28;20391;-64
2022/07/18 04:45:16;;;;;;;;;;;;;;;;;;10418901;28;19929;-64
2022/07/18 04:50:18;;;;;;;;;;;;;;;;;;10420168;28;19925;-64
2022/07/18 04:55:21;;;;;;;;;;;;;;;;;;10419959;28;19932;-64
2022/07/18 05:00:23;;;;;;;;;;;;;;;;;;10418958;28;19926;-64
2022/07/18 05:05:26;;;;;;;;;;;;;;;;;;10419203;28;19925;-64
2022/07/18 05:10:34;;;;;;;;;;;;;;;;;;10418790;28;20399;-64
2022/07/18 05:15:37;;;;;;;;;;;;;;;;;;10401057;28;20261;-64
2022/07/18 05:20:39;;;;;;;;;;;;;;;;;;10418120;28;20347;-64
2022/07/18 05:25:44;;;;;;;;;;;;;;;;;;10418080;28;19994;-64
2022/07/18 05:30:46;;;;;;;;;;;;;;;;;;10418339;28;19925;-64
2022/07/18 05:35:49;;;;;;;;;;;;;;;;;;10417763;28;19925;-64
2022/07/18 05:40:51;;;;;;;;;;;;;;;;;;10417502;28;20281;-65
2022/07/18 05:45:53;;;;;;;;;;;;;;;;;;10416657;28;20339;-65
2022/07/18 05:50:55;;;;;;;;;;;;;;;;;;10417795;28;19971;-64
2022/07/18 05:55:57;;;;;;;;;;;;;;;;;;10417658;28;19932;-64
2022/07/18 06:00:59;;;;;;;;;;;;;;;;;;10415964;28;20288;-64
2022/07/18 06:06:01;;;;;;;;;;;;;;;;;;10416330;28;19947;-64
2022/07/18 06:11:03;;;;;;;;;;;;;;;;;;10416498;28;19925;-65
2022/07/18 06:16:05;;;;;;;;;;;;;;;;;;10416325;28;19929;-65
2022/07/18 06:21:08;;;;;;;;;;;;;;;;;;10413336;28;20368;-65
2022/07/18 06:26:10;;;;;;;;;;;;;;;;;;10406759;28;19925;-65
2022/07/18 06:31:14;;;;;;;;;;;;;;;;;;10414305;28;20016;-65
2022/07/18 06:36:17;;;;;;;;;;;;;;;;;;10415472;28;19925;-63
2022/07/18 06:41:19;;;;;;;;;;;;;;;;;;10382942;28;19939;-63
2022/07/18 06:46:21;;;;;;;;;;;;;;;;;;10415421;28;19925;-64
2022/07/18 06:51:24;;;;;;;;;;;;;;;;;;10416048;28;19932;-64
2022/07/18 06:56:26;;;;;;;;;;;;;;;;;;10414458;28;19971;-64
2022/07/18 07:01:29;;;;;;;;;;;;;;;;;;10411069;28;19925;-64
2022/07/18 07:06:31;;;;;;;;;;;;;;;;;;10414313;28;20434;-64
2022/07/18 07:11:33;;;;;;;;;;;;;;;;;;10406631;28;20381;-67
2022/07/18 07:16:35;;;;;;;;;;;;;;;;;;10404006;28;20365;-63
2022/07/18 07:21:38;;;;;;;;;;;;;;;;;;10422780;28;19925;-60
2022/07/18 07:26:40;;;;;;;;;;;;;;;;;;10404316;28;19940;-63
2022/07/18 07:31:42;;;;;;;;;;;;;;;;;;10417635;28;19929;-63
2022/07/18 07:36:44;;;;;;;;;;;;;;;;;;10420994;28;19925;-64
2022/07/18 07:41:46;;;;;;;;;;;;;;;;;;10389844;28;20384;-64
2022/07/18 07:46:52;;;;;;;;;;;;;;;;;;10421290;28;19925;-65
2022/07/18 07:51:54;;;;;;;;;;;;;;;;;;10421593;28;20288;-65
2022/07/18 07:56:56;;;;;;;;;;;;;;;;;;10420968;28;19951;-65
2022/07/18 08:01:58;;;;;;;;;;;;;;;;;;10421688;28;19932;-65
2022/07/18 08:07:01;;;;;;;;;;;;;;;;;;10420670;28;19932;-65
2022/07/18 08:12:03;;;;;;;;;;;;;;;;;;10404353;28;19925;-65
2022/07/18 08:17:05;;;;;;;;;;;;;;;;;;10420753;28;19935;-66
2022/07/18 08:22:07;;;;;;;;;;;;;;;;;;10420138;28;20391;-66
2022/07/18 08:27:09;;;;;;;;;;;;;;;;;;10420087;28;19933;-66
2022/07/18 08:32:13;;;;;;;;;;;;;;;;;;10420827;28;19925;-66
2022/07/18 08:37:15;;;;;;;;;;;;;;;;;;10420821;28;19932;-66
2022/07/18 08:42:17;;;;;;;;;;;;;;;;;;10420214;28;19925;-66
2022/07/18 08:47:19;;;;;;;;;;;;;;;;;;10419153;28;19935;-66
2022/07/18 08:52:21;;;;;;;;;;;;;;;;;;10418022;28;19925;-66
2022/07/18 08:57:30;;;;;;;;;;;;;;;;;;10427866;22;19929;-65
2022/07/18 09:02:32;;;;;;;;;;;;;;;;;;10392159;28;19929;-64
2022/07/18 09:07:37;;;;;;;;;;;;;;;;;;10406513;28;19929;-64
2022/07/18 09:12:39;;;;;;;;;;;;;;;;;;10418430;28;20277;-64
2022/07/18 09:17:44;;;;;;;;;;;;;;;;;;10418898;28;19931;-65
2022/07/18 09:22:50;;;;;;;;;;;;;;;;;;10419334;28;19926;-65
2022/07/18 09:27:52;;;;;;;;;;;;;;;;;;10418248;28;19926;-65
2022/07/18 09:32:54;;;;;;;;;;;;;;;;;;10416121;28;19925;-65
2022/07/18 09:37:56;;;;;;;;;;;;;;;;;;10417991;28;19925;-65
2022/07/18 09:42:58;;;;;;;;;;;;;;;;;;10417450;28;19929;-65
2022/07/18 09:48:00;;;;;;;;;;;;;;;;;;10415995;28;19932;-65
2022/07/18 09:53:02;;;;;;;;;;;;;;;;;;10417306;28;19925;-65
2022/07/18 09:58:25;;;;;;;;;;;;;;;;;;10385168;28;20315;-65
2022/07/18 10:03:27;;;;;;;;;;;;;;;;;;10417121;28;19925;-65
2022/07/18 10:08:29;;;;;;;;;;;;;;;;;;10415425;28;19925;-65
2022/07/18 10:13:31;;;;;;;;;;;;;;;;;;10416048;28;19932;-66
2022/07/18 10:18:33;;;;;;;;;;;;;;;;;;10416055;28;19987;-65
2022/07/18 10:23:35;;;;;;;;;;;;;;;;;;10398756;28;19925;-65
2022/07/18 10:28:37;;;;;;;;;;;;;;;;;;10415982;28;19925;-65
2022/07/18 10:33:39;;;;;;;;;;;;;;;;;;10414802;28;19947;-65
2022/07/18 10:38:41;;;;;;;;;;;;;;;;;;10415948;28;19925;-65
2022/07/18 10:43:43;;;;;;;;;;;;;;;;;;10395361;28;19932;-65
2022/07/18 10:48:45;;;;;;;;;;;;;;;;;;10378764;28;19925;-66
2022/07/18 10:53:48;;;;;;;;;;;;;;;;;;10414488;28;19928;-65
2022/07/18 10:58:50;;;;;;;;;;;;;;;;;;10392937;28;20371;-65
2022/07/18 11:03:52;;;;;;;;;;;;;;;;;;10415281;28;19925;-65
2022/07/18 11:08:54;;;;;;;;;;;;;;;;;;10414575;28;19948;-65
2022/07/18 11:13:56;;;;;;;;;;;;;;;;;;10414748;28;19925;-66
2022/07/18 11:18:58;;;;;;;;;;;;;;;;;;10415131;28;19929;-66
2022/07/18 11:24:00;;;;;;;;;;;;;;;;;;10414105;28;20276;-65
2022/07/18 11:29:02;;;;;;;;;;;;;;;;;;10368875;28;19932;-68
2022/07/18 11:34:04;;;;;;;;;;;;;;;;;;10414543;28;19925;-68
2022/07/18 11:39:07;;;;;;;;;;;;;;;;;;10410643;28;19926;-68
2022/07/18 11:44:09;;;;;;;;;;;;;;;;;;10385266;28;19925;-69
2022/07/18 11:49:11;;;;;;;;;;;;;;;;;;10413978;28;19925;-69
2022/07/18 11:54:13;;;;;;;;;;;;;;;;;;10414263;28;19925;-69
2022/07/18 11:59:15;;;;;;;;;;;;;;;;;;10420217;28;19929;-69
2022/07/18 12:04:18;;;;;;;;;;;;;;;;;;10421452;28;19931;-69
2022/07/18 12:09:20;;;;;;;;;;;;;;;;;;10420427;28;19925;-69
2022/07/18 12:14:22;;;;;;;;;;;;;;;;;;10420663;28;19929;-69
2022/07/18 12:19:24;;;;;;;;;;;;;;;;;;10421544;28;19932;-70
2022/07/18 12:24:26;;;;;;;;;;;;;;;;;;10420260;28;19929;-70
2022/07/18 12:29:33;;;;;;;;;;;;;;;;;;10420531;28;20020;-70
2022/07/18 12:34:35;;;;;;;;;;;;;;;;;;10418587;28;20380;-70
2022/07/18 12:39:37;;;;;;;;;;;;;;;;;;10420735;28;19925;-70
2022/07/18 12:44:39;;;;;;;;;;;;;;;;;;10419974;28;19929;-70
2022/07/18 12:49:47;;;;;;;;;;;;;;;;;;10403754;28;19926;-70
2022/07/18 12:54:49;;;;;;;;;;;;;;;;;;10420147;28;19935;-69
2022/07/18 12:59:51;;;;;;;;;;;;;;;;;;10419145;28;20372;-70
2022/07/18 13:04:53;;;;;;;;;;;;;;;;;;10419003;28;19925;-71
2022/07/18 13:09:55;;;;;;;;;;;;;;;;;;10418740;28;20372;-72
2022/07/18 13:14:57;;;;;;;;;;;;;;;;;;10419278;28;19932;-71
2022/07/18 13:19:59;;;;;;;;;;;;;;;;;;10419179;28;19936;-71
2022/07/18 13:25:02;;;;;;;;;;;;;;;;;;10401330;28;19925;-72
2022/07/18 13:30:04;;;;;;;;;;;;;;;;;;10419142;28;19925;-73
2022/07/18 13:35:06;;;;;;;;;;;;;;;;;;10418524;28;19925;-72
2022/07/18 13:40:08;;;;;;;;;;;;;;;;;;10418531;28;20000;-72
2022/07/18 13:45:13;;;;;;;;;;;;;;;;;;10417180;28;20015;-65
2022/07/18 13:50:15;;;;;;;;;;;;;;;;;;10415969;28;19926;-64
2022/07/18 13:55:17;;;;;;;;;;;;;;;;;;10417157;28;20284;-65
2022/07/18 14:00:19;;;;;;;;;;;;;;;;;;10416520;28;20384;-64
2022/07/18 14:05:21;;;;;;;;;;;;;;;;;;10416730;28;19933;-65
2022/07/18 14:10:23;;;;;;;;;;;;;;;;;;10417295;28;19925;-65
2022/07/18 14:15:25;;;;;;;;;;;;;;;;;;10416470;28;19948;-65
2022/07/18 14:20:27;;;;;;;;;;;;;;;;;;10413419;28;19932;-64
2022/07/18 14:25:30;;;;;;;;;;;;;;;;;;10416720;28;19929;-64
2022/07/18 14:30:32;;;;;;;;;;;;;;;;;;10415744;28;19925;-64
2022/07/18 14:35:34;;;;;;;;;;;;;;;;;;10416427;28;19925;-64
2022/07/18 14:40:36;;;;;;;;;;;;;;;;;;10416270;28;19932;-64
2022/07/18 14:45:38;;;;;;;;;;;;;;;;;;10415442;28;19940;-64
2022/07/18 14:50:59;;;;;;;;;;;;;;;;;;10416086;28;19975;-64
2022/07/18 14:56:03;;;;;;;;;;;;;;;;;;10415222;28;20335;-64
2022/07/18 15:01:06;;;;;;;;;;;;;;;;;;10415316;28;19928;-64
2022/07/18 15:06:08;;;;;;;;;;;;;;;;;;10415749;28;19979;-64
2022/07/18 15:11:10;;;;;;;;;;;;;;;;;;10415166;28;19952;-64
2022/07/18 15:16:12;;;;;;;;;;;;;;;;;;10415033;28;20372;-64
2022/07/18 15:21:14;;;;;;;;;;;;;;;;;;10415544;28;19971;-64
2022/07/18 15:26:16;;;;;;;;;;;;;;;;;;10414772;28;20403;-64
2022/07/18 15:31:18;;;;;;;;;;;;;;;;;;10417304;28;20384;-64
2022/07/18 15:36:21;;;;;;;;;;;;;;;;;;10423239;28;19925;-64
2022/07/18 15:41:23;;;;;;;;;;;;;;;;;;10423050;28;19925;-65
2022/07/18 15:46:26;;;;;;;;;;;;;;;;;;10422802;28;20016;-65
2022/07/18 15:51:28;;;;;;;;;;;;;;;;;;10404516;28;20372;-65
2022/07/18 15:56:30;;;;;;;;;;;;;;;;;;10422473;28;19936;-65
2022/07/18 16:01:32;;;;;;;;;;;;;;;;;;10421490;28;19925;-64
2022/07/18 16:06:39;;;;;;;;;;;;;;;;;;10422038;28;19925;-64
2022/07/18 16:11:41;;;;;;;;;;;;;;;;;;10421890;28;19925;-64
2022/07/18 16:16:43;;;;;;;;;;;;;;;;;;10421635;28;19925;-65
2022/07/18 16:21:45;;;;;;;;;;;;;;;;;;10421618;28;19963;-60
2022/07/18 16:26:47;;;;;;;;;;;;;;;;;;10420667;28;20287;-60
2022/07/18 16:31:49;;;;;;;;;;;;;;;;;;10420533;28;19925;-60
2022/07/18 16:36:51;;;;;;;;;;;;;;;;;;10420927;28;19972;-60
2022/07/18 16:41:53;;;;;;;;;;;;;;;;;;10420234;28;19936;-60
2022/07/18 16:47:01;;;;;;;;;;;;;;;;;;10419940;28;19979;-60
2022/07/18 16:52:03;;;;;;;;;;;;;;;;;;10420312;28;19932;-60
2022/07/18 16:57:05;;;;;;;;;;;;;;;;;;10420225;28;19925;-60
2022/07/18 17:02:07;;;;;;;;;;;;;;;;;;10419324;28;19925;-60
2022/07/18 17:07:10;;;;;;;;;;;;;;;;;;10419013;28;19929;-60
2022/07/18 17:12:12;;;;;;;;;;;;;;;;;;10419077;28;20362;-60
2022/07/18 17:17:14;;;;;;;;;;;;;;;;;;10419063;28;19932;-60
2022/07/18 17:22:17;;;;;;;;;;;;;;;;;;10400889;28;19925;-59
2022/07/18 17:27:19;;;;;;;;;;;;;;;;;;10418817;28;19951;-60
2022/07/18 17:32:21;;;;;;;;;;;;;;;;;;10418035;28;19947;-60
2022/07/18 17:37:23;;;;;;;;;;;;;;;;;;10417924;28;20364;-60
2022/07/18 17:42:25;;;;;;;;;;;;;;;;;;10418177;28;19936;-60
2022/07/18 17:47:31;;;;;;;;;;;;;;;;;;10417255;28;19948;-60
2022/07/18 17:52:33;;;;;;;;;;;;;;;;;;10416609;28;19925;-60
2022/07/18 17:57:35;;;;;;;;;;;;;;;;;;10417587;28;19932;-60
2022/07/18 18:02:37;;;;;;;;;;;;;;;;;;10416846;28;19961;-60
2022/07/18 18:07:41;;;;;;;;;;;;;;;;;;10416651;28;20305;-60
2022/07/18 18:12:43;;;;;;;;;;;;;;;;;;10416578;28;19929;-60
2022/07/18 18:17:45;;;;;;;;;;;;;;;;;;10417072;28;19925;-60
2022/07/18 18:22:47;;;;;;;;;;;;;;;;;;10416217;28;19929;-60
2022/07/18 18:27:53;;;;;;;;;;;;;;;;;;10416254;28;20020;-60
2022/07/18 18:32:55;;;;;;;;;;;;;;;;;;10416613;28;19932;-60
2022/07/18 18:37:57;;;;;;;;;;;;;;;;;;10416680;28;19931;-60
2022/07/18 18:42:59;;;;;;;;;;;;;;;;;;10416362;28;19929;-60
2022/07/18 18:48:01;;;;;;;;;;;;;;;;;;10416137;28;19925;-60
2022/07/18 18:53:03;;;;;;;;;;;;;;;;;;10416140;28;19948;-59
2022/07/18 18:58:06;;;;;;;;;;;;;;;;;;10415215;28;19925;-60
2022/07/18 19:03:08;;;;;;;;;;;;;;;;;;10415960;28;19925;-59
2022/07/18 19:08:10;;;;;;;;;;;;;;;;;;10423360;28;19925;-59
2022/07/18 19:13:13;;;;;;;;;;;;;;;;;;10423536;28;20364;-60
2022/07/18 19:18:15;;;;;;;;;;;;;;;;;;10423952;28;19929;-59
2022/07/18 19:23:17;;;;;;;;;;;;;;;;;;10423770;28;19925;-59
2022/07/18 19:28:19;;;;;;;;;;;;;;;;;;10423536;28;19925;-60
2022/07/18 19:33:22;;;;;;;;;;;;;;;;;;10422733;28;19925;-59
2022/07/18 19:38:24;;;;;;;;;;;;;;;;;;10422586;28;20281;-59
2022/07/18 19:43:26;;;;;;;;;;;;;;;;;;10422392;28;19932;-59
2022/07/18 19:48:28;;;;;;;;;;;;;;;;;;10422771;28;19925;-59
2022/07/18 19:53:30;;;;;;;;;;;;;;;;;;10422601;28;19929;-59
2022/07/18 19:58:32;;;;;;;;;;;;;;;;;;10422200;28;19925;-59
2022/07/18 20:03:34;;;;;;;;;;;;;;;;;;10422365;28;19925;-59
2022/07/18 20:08:36;;;;;;;;;;;;;;;;;;10422041;28;19925;-59
2022/07/18 20:13:38;;;;;;;;;;;;;;;;;;10421878;28;19925;-59
2022/07/18 20:18:40;;;;;;;;;;;;;;;;;;10420703;28;19976;-59
2022/07/18 20:23:48;;;;;;;;;;;;;;;;;;10420888;28;19932;-59
2022/07/18 20:28:50;;;;;;;;;;;;;;;;;;10421227;28;19929;-59
2022/07/18 20:33:53;;;;;;;;;;;;;;;;;;10420443;28;19929;-59
2022/07/18 20:38:55;;;;;;;;;;;;;;;;;;10420912;28;19933;-59
2022/07/18 20:43:57;;;;;;;;;;;;;;;;;;10420924;28;19925;-59
2022/07/18 20:48:59;;;;;;;;;;;;;;;;;;10420033;28;20004;-59
2022/07/18 20:54:01;;;;;;;;;;;;;;;;;;10420339;28;19925;-59
2022/07/18 20:59:03;;;;;;;;;;;;;;;;;;10419252;28;19948;-59
2022/07/18 21:04:05;;;;;;;;;;;;;;;;;;10419204;28;19925;-59
2022/07/18 21:09:08;;;;;;;;;;;;;;;;;;10419629;28;19925;-59
2022/07/18 21:19:31;;;;;;;;;;;;;;;;;;10460504;28;19925;-65
2022/07/18 21:24:34;;;;;;;;;;;;;;;;;;10459971;28;19928;-65
2022/07/18 21:29:38;;;;;;;;;;;;;;;;;;10459557;28;19931;-65
2022/07/18 21:34:40;;;;;;;;;;;;;;;;;;10458605;28;19943;-65
2022/07/18 21:39:42;;;;;;;;;;;;;;;;;;10459770;28;19929;-65
2022/07/18 21:44:44;;;;;;;;;;;;;;;;;;10459374;28;20318;-65
2022/07/18 21:49:47;;;;;;;;;;;;;;;;;;10458665;28;19925;-65
2022/07/18 21:54:49;;;;;;;;;;;;;;;;;;10458478;28;20287;-65
2022/07/18 21:59:51;;;;;;;;;;;;;;;;;;10458966;28;19932;-65
2022/07/18 22:04:53;;;;;;;;;;;;;;;;;;10457987;28;20283;-65
2022/07/18 22:09:55;;;;;;;;;;;;;;;;;;10457899;28;20309;-65
2022/07/18 22:14:57;;;;;;;;;;;;;;;;;;10457855;28;19925;-65
2022/07/18 22:19:59;;;;;;;;;;;;;;;;;;10456381;28;20307;-65
2022/07/18 22:25:02;;;;;;;;;;;;;;;;;;10457339;28;20397;-65
2022/07/18 22:30:04;;;;;;;;;;;;;;;;;;10457243;28;20380;-65
2022/07/18 22:35:06;;;;;;;;;;;;;;;;;;10457718;28;19925;-65
2022/07/18 22:40:13;;;;;;;;;;;;;;;;;;10457195;28;19924;-65
2022/07/18 22:45:15;;;;;;;;;;;;;;;;;;10457397;28;19925;-65
2022/07/18 22:50:17;;;;;;;;;;;;;;;;;;10457381;28;19931;-65
2022/07/18 22:55:20;;;;;;;;;;;;;;;;;;10455514;28;19932;-65
2022/07/18 23:00:22;;;;;;;;;;;;;;;;;;10456602;28;19936;-65
2022/07/18 23:05:25;;;;;;;;;;;;;;;;;;10455887;28;19931;-65
2022/07/18 23:10:27;;;;;;;;;;;;;;;;;;10457094;28;19935;-65
2022/07/18 23:15:29;;;;;;;;;;;;;;;;;;10456149;28;20367;-65
2022/07/18 23:20:31;;;;;;;;;;;;;;;;;;10456777;28;19925;-65
2022/07/18 23:25:33;;;;;;;;;;;;;;;;;;10456619;28;19925;-65
2022/07/18 23:30:35;;;;;;;;;;;;;;;;;;10456011;28;20276;-65
2022/07/18 23:35:37;;;;;;;;;;;;;;;;;;10455885;28;20276;-65
2022/07/18 23:40:40;;;;;;;;;;;;;;;;;;10456411;28;19924;-65
2022/07/18 23:45:42;;;;;;;;;;;;;;;;;;10455625;28;20109;-65
2022/07/18 23:50:44;;;;;;;;;;;;;;;;;;10456192;28;19932;-65
2022/07/18 23:55:46;;;;;;;;;;;;;;;;;;10463910;28;19931;-65
